sensor_id;sensor_type;location;lat;lon;timestamp;pressure;altitude;pressure_sealevel;temperature
63009;BMP280;49099;28.428;-16.488;2022-10-04T00:02:43;98790.09;;;25.22
63009;BMP280;49099;28.428;-16.488;2022-10-04T00:05:52;98792.53;;;25.20
63009;BMP280;49099;28.428;-16.488;2022-10-04T00:08:25;98785.94;;;25.21
63009;BMP280;49099;28.428;-16.488;2022-10-04T00:13:40;98782.81;;;25.17
63009;BMP280;49099;28.428;-16.488;2022-10-04T00:16:35;98775.47;;;25.17
63009;BMP280;49099;28.428;-16.488;2022-10-04T00:19:45;98777.41;;;25.17
63009;BMP280;49099;28.428;-16.488;2022-10-04T00:25:36;98756.91;;;25.14
63009;BMP280;49099;28.428;-16.488;2022-10-04T00:31:28;98750.09;;;25.13
63009;BMP280;49099;28.428;-16.488;2022-10-04T00:37:22;98733.75;;;25.11
63009;BMP280;49099;28.428;-16.488;2022-10-04T00:46:12;98730.81;;;25.09
63009;BMP280;49099;28.428;-16.488;2022-10-04T00:52:11;98729.88;;;25.06
63009;BMP280;49099;28.428;-16.488;2022-10-04T00:55:04;98734.53;;;25.06
63009;BMP280;49099;28.428;-16.488;2022-10-04T01:07:53;98711.78;;;25.07
63009;BMP280;49099;28.428;-16.488;2022-10-04T01:10:46;98719.19;;;25.01
63009;BMP280;49099;28.428;-16.488;2022-10-04T01:13:18;98715.03;;;25.00
63009;BMP280;49099;28.428;-16.488;2022-10-04T01:16:08;98709.88;;;25.02
63009;BMP280;49099;28.428;-16.488;2022-10-04T01:21:29;98708.88;;;25.05
63009;BMP280;49099;28.428;-16.488;2022-10-04T01:29:26;98707.44;;;25.04
63009;BMP280;49099;28.428;-16.488;2022-10-04T01:32:12;98699.38;;;25.04
63009;BMP280;49099;28.428;-16.488;2022-10-04T01:35:15;98699.38;;;25.04
63009;BMP280;49099;28.428;-16.488;2022-10-04T01:38:19;98695.44;;;25.05
63009;BMP280;49099;28.428;-16.488;2022-10-04T01:44:20;98696.91;;;25.06
63009;BMP280;49099;28.428;-16.488;2022-10-04T01:47:38;98695.22;;;25.03
63009;BMP280;49099;28.428;-16.488;2022-10-04T01:50:12;98688.63;;;25.04
63009;BMP280;49099;28.428;-16.488;2022-10-04T01:55:43;98683.31;;;24.98
63009;BMP280;49099;28.428;-16.488;2022-10-04T01:58:21;98675.00;;;24.96
63009;BMP280;49099;28.428;-16.488;2022-10-04T02:01:10;98673.06;;;24.97
63009;BMP280;49099;28.428;-16.488;2022-10-04T02:03:47;98673.06;;;24.97
63009;BMP280;49099;28.428;-16.488;2022-10-04T02:06:40;98665.00;;;24.97
63009;BMP280;49099;28.428;-16.488;2022-10-04T02:09:12;98663.53;;;24.96
63009;BMP280;49099;28.428;-16.488;2022-10-04T02:11:42;98662.31;;;24.97
63009;BMP280;49099;28.428;-16.488;2022-10-04T02:14:16;98659.63;;;24.97
63009;BMP280;49099;28.428;-16.488;2022-10-04T02:17:21;98658.25;;;24.90
63009;BMP280;49099;28.428;-16.488;2022-10-04T02:20:17;98649.22;;;24.88
63009;BMP280;49099;28.428;-16.488;2022-10-04T02:22:49;98650.66;;;24.89
63009;BMP280;49099;28.428;-16.488;2022-10-04T02:25:18;98649.44;;;24.90
63009;BMP280;49099;28.428;-16.488;2022-10-04T02:27:46;98648.19;;;24.91
63009;BMP280;49099;28.428;-16.488;2022-10-04T02:30:13;98658.94;;;24.91
63009;BMP280;49099;28.428;-16.488;2022-10-04T02:32:41;98653.56;;;24.91
63009;BMP280;49099;28.428;-16.488;2022-10-04T02:35:30;98652.13;;;24.90
63009;BMP280;49099;28.428;-16.488;2022-10-04T02:43:22;98654.88;;;24.84
63009;BMP280;49099;28.428;-16.488;2022-10-04T02:46:19;98645.38;;;24.83
63009;BMP280;49099;28.428;-16.488;2022-10-04T02:56:41;98652.47;;;24.81
63009;BMP280;49099;28.428;-16.488;2022-10-04T02:59:14;98643.38;;;24.84
63009;BMP280;49099;28.428;-16.488;2022-10-04T03:01:52;98640.91;;;24.86
63009;BMP280;49099;28.428;-16.488;2022-10-04T03:04:23;98640.91;;;24.86
63009;BMP280;49099;28.428;-16.488;2022-10-04T03:06:51;98634.81;;;24.85
63009;BMP280;49099;28.428;-16.488;2022-10-04T03:09:21;98628.22;;;24.86
63009;BMP280;49099;28.428;-16.488;2022-10-04T03:11:54;98619.41;;;24.86
63009;BMP280;49099;28.428;-16.488;2022-10-04T03:14:25;98620.88;;;24.87
63009;BMP280;49099;28.428;-16.488;2022-10-04T03:16:58;98622.38;;;24.88
63009;BMP280;49099;28.428;-16.488;2022-10-04T03:19:28;98625.25;;;24.90
63009;BMP280;49099;28.428;-16.488;2022-10-04T03:22:00;98617.19;;;24.90
63009;BMP280;49099;28.428;-16.488;2022-10-04T03:24:55;98615.97;;;24.91
63009;BMP280;49099;28.428;-16.488;2022-10-04T03:27:28;98621.31;;;24.91
63009;BMP280;49099;28.428;-16.488;2022-10-04T03:29:57;98622.78;;;24.92
63009;BMP280;49099;28.428;-16.488;2022-10-04T03:32:26;98615.44;;;24.92
63009;BMP280;49099;28.428;-16.488;2022-10-04T03:35:02;98610.78;;;24.93
63009;BMP280;49099;28.428;-16.488;2022-10-04T03:37:34;98624.22;;;24.93
63009;BMP280;49099;28.428;-16.488;2022-10-04T03:40:04;98621.31;;;24.91
63009;BMP280;49099;28.428;-16.488;2022-10-04T03:42:36;98614.78;;;24.86
63009;BMP280;49099;28.428;-16.488;2022-10-04T03:45:14;98608.66;;;24.86
63009;BMP280;49099;28.428;-16.488;2022-10-04T03:47:44;98613.34;;;24.85
63009;BMP280;49099;28.428;-16.488;2022-10-04T03:50:33;98607.44;;;24.87
63009;BMP280;49099;28.428;-16.488;2022-10-04T03:53:06;98610.44;;;24.83
63009;BMP280;49099;28.428;-16.488;2022-10-04T03:55:38;98604.31;;;24.83
63009;BMP280;49099;28.428;-16.488;2022-10-04T03:58:09;98606.81;;;24.81
63009;BMP280;49099;28.428;-16.488;2022-10-04T04:00:42;98600.69;;;24.80
63009;BMP280;49099;28.428;-16.488;2022-10-04T04:03:14;98602.66;;;24.80
63009;BMP280;49099;28.428;-16.488;2022-10-04T04:05:51;98589.41;;;24.82
63009;BMP280;49099;28.428;-16.488;2022-10-04T04:10:52;98596.50;;;24.85
63009;BMP280;49099;28.428;-16.488;2022-10-04T04:15:48;98587.16;;;24.86
63009;BMP280;49099;28.428;-16.488;2022-10-04T04:18:20;98591.63;;;24.83
63009;BMP280;49099;28.428;-16.488;2022-10-04T04:20:49;98583.56;;;24.83
63009;BMP280;49099;28.428;-16.488;2022-10-04T04:23:44;98575.00;;;24.85
63009;BMP280;49099;28.428;-16.488;2022-10-04T04:29:07;98586.16;;;24.89
63009;BMP280;49099;28.428;-16.488;2022-10-04T04:31:44;98589.09;;;24.91
63009;BMP280;49099;28.428;-16.488;2022-10-04T04:34:26;98588.06;;;24.94
63009;BMP280;49099;28.428;-16.488;2022-10-04T04:37:00;98588.06;;;24.94
63009;BMP280;49099;28.428;-16.488;2022-10-04T04:39:30;98585.09;;;24.97
63009;BMP280;49099;28.428;-16.488;2022-10-04T04:44:54;98569.91;;;25.00
63009;BMP280;49099;28.428;-16.488;2022-10-04T04:47:46;98569.19;;;24.99
63009;BMP280;49099;28.428;-16.488;2022-10-04T04:50:36;98570.66;;;25.00
63009;BMP280;49099;28.428;-16.488;2022-10-04T04:53:04;98566.00;;;25.01
63009;BMP280;49099;28.428;-16.488;2022-10-04T04:58:32;98567.44;;;25.02
63009;BMP280;49099;28.428;-16.488;2022-10-04T05:01:05;98566.19;;;25.03
63009;BMP280;49099;28.428;-16.488;2022-10-04T05:03:33;98570.38;;;25.04
63009;BMP280;49099;28.428;-16.488;2022-10-04T05:06:01;98573.75;;;25.04
63009;BMP280;49099;28.428;-16.488;2022-10-04T05:08:32;98567.88;;;25.06
63009;BMP280;49099;28.428;-16.488;2022-10-04T05:13:38;98566.84;;;25.09
63009;BMP280;49099;28.428;-16.488;2022-10-04T05:16:17;98568.31;;;25.10
63009;BMP280;49099;28.428;-16.488;2022-10-04T05:18:46;98571.22;;;25.12
63009;BMP280;49099;28.428;-16.488;2022-10-04T05:21:24;98569.91;;;25.18
63009;BMP280;49099;28.428;-16.488;2022-10-04T05:23:55;98561.03;;;25.23
63009;BMP280;49099;28.428;-16.488;2022-10-04T05:26:28;98566.34;;;25.29
63009;BMP280;49099;28.428;-16.488;2022-10-04T05:29:00;98575.84;;;25.30
63009;BMP280;49099;28.428;-16.488;2022-10-04T05:31:38;98582.47;;;25.29
63009;BMP280;49099;28.428;-16.488;2022-10-04T05:34:25;98578.13;;;25.26
63009;BMP280;49099;28.428;-16.488;2022-10-04T05:37:25;98589.41;;;25.24
63009;BMP280;49099;28.428;-16.488;2022-10-04T05:42:42;98593.09;;;25.21
63009;BMP280;49099;28.428;-16.488;2022-10-04T05:47:56;98601.44;;;25.18
63009;BMP280;49099;28.428;-16.488;2022-10-04T05:50:35;98595.06;;;25.21
63009;BMP280;49099;28.428;-16.488;2022-10-04T05:53:25;98601.91;;;25.22
63009;BMP280;49099;28.428;-16.488;2022-10-04T05:56:06;98606.97;;;25.25
63009;BMP280;49099;28.428;-16.488;2022-10-04T06:07:26;98627.88;;;25.32
63009;BMP280;49099;28.428;-16.488;2022-10-04T06:13:06;98635.44;;;25.34
63009;BMP280;49099;28.428;-16.488;2022-10-04T06:24:13;98647.00;;;25.29
63009;BMP280;49099;28.428;-16.488;2022-10-04T06:26:47;98649.25;;;25.25
63009;BMP280;49099;28.428;-16.488;2022-10-04T06:29:24;98656.09;;;25.26
63009;BMP280;49099;28.428;-16.488;2022-10-04T06:35:04;98658.25;;;25.27
63009;BMP280;49099;28.428;-16.488;2022-10-04T06:40:44;98667.00;;;25.33
63009;BMP280;49099;28.428;-16.488;2022-10-04T07:05:32;98664.09;;;25.31
63009;BMP280;49099;28.428;-16.488;2022-10-04T07:08:08;98662.31;;;25.34
63009;BMP280;49099;28.428;-16.488;2022-10-04T07:10:46;98659.88;;;25.36
63009;BMP280;49099;28.428;-16.488;2022-10-04T07:15:59;98657.63;;;25.40
63009;BMP280;49099;28.428;-16.488;2022-10-04T07:18:55;98660.00;;;25.43
63009;BMP280;49099;28.428;-16.488;2022-10-04T07:21:19;98658.78;;;25.44
63009;BMP280;49099;28.428;-16.488;2022-10-04T07:23:56;98664.06;;;25.50
63009;BMP280;49099;28.428;-16.488;2022-10-04T07:26:25;98667.13;;;25.59
63009;BMP280;49099;28.428;-16.488;2022-10-04T07:28:57;98674.13;;;25.68
63009;BMP280;49099;28.428;-16.488;2022-10-04T07:31:48;98674.53;;;25.72
63009;BMP280;49099;28.428;-16.488;2022-10-04T07:34:22;98680.13;;;25.74
63009;BMP280;49099;28.428;-16.488;2022-10-04T07:36:54;98676.22;;;25.75
63009;BMP280;49099;28.428;-16.488;2022-10-04T07:39:27;98679.91;;;25.72
63009;BMP280;49099;28.428;-16.488;2022-10-04T07:41:58;98689.44;;;25.73
63009;BMP280;49099;28.428;-16.488;2022-10-04T07:44:36;98687.47;;;25.73
63009;BMP280;49099;28.428;-16.488;2022-10-04T07:47:18;98698.97;;;25.74
63009;BMP280;49099;28.428;-16.488;2022-10-04T07:49:46;98702.41;;;25.74
63009;BMP280;49099;28.428;-16.488;2022-10-04T07:58:10;98715.56;;;25.78
63009;BMP280;49099;28.428;-16.488;2022-10-04T08:06:19;98720.69;;;25.76
63009;BMP280;49099;28.428;-16.488;2022-10-04T08:19:44;98722.66;;;25.75
63009;BMP280;49099;28.428;-16.488;2022-10-04T08:22:31;98722.66;;;25.75
63009;BMP280;49099;28.428;-16.488;2022-10-04T08:28:01;98729.50;;;25.76
63009;BMP280;49099;28.428;-16.488;2022-10-04T09:10:56;98778.34;;;26.62
63009;BMP280;49099;28.428;-16.488;2022-10-04T09:13:37;98781.72;;;26.68
63009;BMP280;49099;28.428;-16.488;2022-10-04T09:19:39;98793.31;;;26.76
63009;BMP280;49099;28.428;-16.488;2022-10-04T09:42:13;98829.66;;;27.01
63009;BMP280;49099;28.428;-16.488;2022-10-04T09:45:12;98825.50;;;27.13
63009;BMP280;49099;28.428;-16.488;2022-10-04T09:50:27;98825.72;;;27.28
63009;BMP280;49099;28.428;-16.488;2022-10-04T09:58:33;98835.06;;;27.27
63009;BMP280;49099;28.428;-16.488;2022-10-04T10:02:22;98833.41;;;27.24
63009;BMP280;49099;28.428;-16.488;2022-10-04T10:08:12;98838.81;;;27.37
63009;BMP280;49099;28.428;-16.488;2022-10-04T10:11:05;98834.75;;;27.44
63009;BMP280;49099;28.428;-16.488;2022-10-04T10:14:29;98835.28;;;27.55
63009;BMP280;49099;28.428;-16.488;2022-10-04T10:34:40;98851.97;;;27.54
63009;BMP280;49099;28.428;-16.488;2022-10-04T10:46:19;98861.81;;;28.11
63009;BMP280;49099;28.428;-16.488;2022-10-04T11:00:19;98868.78;;;28.06
63009;BMP280;49099;28.428;-16.488;2022-10-04T11:17:17;98858.28;;;28.36
63009;BMP280;49099;28.428;-16.488;2022-10-04T11:20:06;98855.78;;;28.38
63009;BMP280;49099;28.428;-16.488;2022-10-04T11:26:53;98854.09;;;28.48
63009;BMP280;49099;28.428;-16.488;2022-10-04T11:32:02;98847.63;;;28.51
63009;BMP280;49099;28.428;-16.488;2022-10-04T11:44:32;98851.72;;;28.65
63009;BMP280;49099;28.428;-16.488;2022-10-04T11:58:27;98847.81;;;29.02
63009;BMP280;49099;28.428;-16.488;2022-10-04T12:11:51;98829.75;;;29.32
63009;BMP280;49099;28.428;-16.488;2022-10-04T12:26:40;98824.00;;;29.86
63009;BMP280;49099;28.428;-16.488;2022-10-04T12:52:22;98820.97;;;30.12
63009;BMP280;49099;28.428;-16.488;2022-10-04T12:58:26;98806.34;;;30.00
63009;BMP280;49099;28.428;-16.488;2022-10-04T13:01:11;98808.31;;;30.15
63009;BMP280;49099;28.428;-16.488;2022-10-04T13:06:46;98806.19;;;30.21
63009;BMP280;49099;28.428;-16.488;2022-10-04T13:09:31;98813.00;;;30.29
63009;BMP280;49099;28.428;-16.488;2022-10-04T13:17:30;98796.69;;;30.74
63009;BMP280;49099;28.428;-16.488;2022-10-04T13:20:28;98791.63;;;30.78
63009;BMP280;49099;28.428;-16.488;2022-10-04T13:39:03;98780.16;;;30.40
63009;BMP280;49099;28.428;-16.488;2022-10-04T13:47:01;98776.50;;;30.38
63009;BMP280;49099;28.428;-16.488;2022-10-04T13:52:41;98772.50;;;30.46
63009;BMP280;49099;28.428;-16.488;2022-10-04T13:55:58;98768.78;;;30.34
63009;BMP280;49099;28.428;-16.488;2022-10-04T14:02:00;98759.91;;;30.11
63009;BMP280;49099;28.428;-16.488;2022-10-04T14:25:44;98763.16;;;30.17
63009;BMP280;49099;28.428;-16.488;2022-10-04T14:37:22;98761.88;;;30.26
63009;BMP280;49099;28.428;-16.488;2022-10-04T14:42:47;98764.97;;;30.30
63009;BMP280;49099;28.428;-16.488;2022-10-04T14:50:53;98765.47;;;29.76
63009;BMP280;49099;28.428;-16.488;2022-10-04T14:53:37;98762.06;;;29.75
63009;BMP280;49099;28.428;-16.488;2022-10-04T14:56:17;98767.47;;;29.83
63009;BMP280;49099;28.428;-16.488;2022-10-04T15:05:24;98771.84;;;30.23
63009;BMP280;49099;28.428;-16.488;2022-10-04T15:08:10;98766.78;;;30.27
63009;BMP280;49099;28.428;-16.488;2022-10-04T15:10:51;98766.03;;;30.27
63009;BMP280;49099;28.428;-16.488;2022-10-04T15:22:10;98764.97;;;30.22
63009;BMP280;49099;28.428;-16.488;2022-10-04T15:32:48;98749.06;;;29.96
63009;BMP280;49099;28.428;-16.488;2022-10-04T15:46:28;98742.56;;;29.99
63009;BMP280;49099;28.428;-16.488;2022-10-04T15:49:17;98744.72;;;29.93
63009;BMP280;49099;28.428;-16.488;2022-10-04T15:52:00;98748.19;;;29.86
63009;BMP280;49099;28.428;-16.488;2022-10-04T15:57:34;98746.13;;;29.57
63009;BMP280;49099;28.428;-16.488;2022-10-04T16:00:25;98741.44;;;29.50
63009;BMP280;49099;28.428;-16.488;2022-10-04T16:06:03;98746.97;;;29.37
63009;BMP280;49099;28.428;-16.488;2022-10-04T16:14:05;98766.56;;;29.15
63009;BMP280;49099;28.428;-16.488;2022-10-04T16:22:32;98770.56;;;28.93
63009;BMP280;49099;28.428;-16.488;2022-10-04T16:27:59;98770.69;;;28.80
63009;BMP280;49099;28.428;-16.488;2022-10-04T16:31:27;98763.44;;;28.75
63009;BMP280;49099;28.428;-16.488;2022-10-04T16:33:31;98761.28;;;28.74
63009;BMP280;49099;28.428;-16.488;2022-10-04T16:36:14;98763.25;;;28.73
63009;BMP280;49099;28.428;-16.488;2022-10-04T16:38:45;98769.91;;;28.72
63009;BMP280;49099;28.428;-16.488;2022-10-04T16:41:45;98770.63;;;28.73
63009;BMP280;49099;28.428;-16.488;2022-10-04T16:44:30;98774.63;;;28.72
63009;BMP280;49099;28.428;-16.488;2022-10-04T16:47:26;98774.25;;;28.75
63009;BMP280;49099;28.428;-16.488;2022-10-04T16:49:56;98776.19;;;28.67
63009;BMP280;49099;28.428;-16.488;2022-10-04T17:06:42;98798.69;;;28.62
63009;BMP280;49099;28.428;-16.488;2022-10-04T17:09:30;98806.06;;;28.62
63009;BMP280;49099;28.428;-16.488;2022-10-04T17:12:17;98798.69;;;28.62
63009;BMP280;49099;28.428;-16.488;2022-10-04T17:14:56;98808.03;;;28.61
63009;BMP280;49099;28.428;-16.488;2022-10-04T17:20:19;98808.03;;;28.61
63009;BMP280;49099;28.428;-16.488;2022-10-04T17:23:18;98817.44;;;28.60
63009;BMP280;49099;28.428;-16.488;2022-10-04T17:28:55;98807.47;;;28.55
63009;BMP280;49099;28.428;-16.488;2022-10-04T17:31:39;98805.31;;;28.54
63009;BMP280;49099;28.428;-16.488;2022-10-04T17:36:58;98815.56;;;28.55
63009;BMP280;49099;28.428;-16.488;2022-10-04T17:39:38;98814.19;;;28.41
63009;BMP280;49099;28.428;-16.488;2022-10-04T17:42:28;98815.72;;;28.29
63009;BMP280;49099;28.428;-16.488;2022-10-04T17:47:38;98817.63;;;28.21
63009;BMP280;49099;28.428;-16.488;2022-10-04T17:50:34;98826.97;;;28.20
63009;BMP280;49099;28.428;-16.488;2022-10-04T17:53:29;98826.78;;;28.18
63009;BMP280;49099;28.428;-16.488;2022-10-04T17:56:34;98826.03;;;28.18
63009;BMP280;49099;28.428;-16.488;2022-10-04T17:59:09;98825.53;;;28.19
63009;BMP280;49099;28.428;-16.488;2022-10-04T18:01:43;98817.44;;;28.19
63009;BMP280;49099;28.428;-16.488;2022-10-04T18:07:07;98828.91;;;28.12
63009;BMP280;49099;28.428;-16.488;2022-10-04T18:12:29;98834.59;;;28.09
63009;BMP280;49099;28.428;-16.488;2022-10-04T18:15:19;98833.47;;;28.04
63009;BMP280;49099;28.428;-16.488;2022-10-04T18:17:48;98834.53;;;28.01
63009;BMP280;49099;28.428;-16.488;2022-10-04T18:20:28;98828.72;;;27.97
63009;BMP280;49099;28.428;-16.488;2022-10-04T18:23:14;98832.28;;;27.92
63009;BMP280;49099;28.428;-16.488;2022-10-04T18:25:42;98837.69;;;27.92
63009;BMP280;49099;28.428;-16.488;2022-10-04T18:28:12;98843.06;;;27.92
63009;BMP280;49099;28.428;-16.488;2022-10-04T18:33:23;98841.97;;;27.88
63009;BMP280;49099;28.428;-16.488;2022-10-04T18:36:12;98847.66;;;27.84
63009;BMP280;49099;28.428;-16.488;2022-10-04T18:38:42;98850.16;;;27.82
63009;BMP280;49099;28.428;-16.488;2022-10-04T18:41:20;98856.59;;;27.79
63009;BMP280;49099;28.428;-16.488;2022-10-04T18:43:49;98857.66;;;27.76
63009;BMP280;49099;28.428;-16.488;2022-10-04T18:46:20;98853.50;;;27.75
63009;BMP280;49099;28.428;-16.488;2022-10-04T18:48:53;98858.72;;;27.73
63009;BMP280;49099;28.428;-16.488;2022-10-04T18:57:14;98864.09;;;27.73
63009;BMP280;49099;28.428;-16.488;2022-10-04T19:00:09;98868.75;;;27.73
63009;BMP280;49099;28.428;-16.488;2022-10-04T19:06:20;98881.34;;;27.70
63009;BMP280;49099;28.428;-16.488;2022-10-04T19:11:27;98889.75;;;27.67
63009;BMP280;49099;28.428;-16.488;2022-10-04T19:14:03;98888.28;;;27.66
63009;BMP280;49099;28.428;-16.488;2022-10-04T19:22:02;98899.22;;;27.60
63009;BMP280;49099;28.428;-16.488;2022-10-04T19:28:05;98903.44;;;27.56
63009;BMP280;49099;28.428;-16.488;2022-10-04T19:41:52;98928.22;;;27.15
63009;BMP280;49099;28.428;-16.488;2022-10-04T19:47:29;98935.69;;;27.22
63009;BMP280;49099;28.428;-16.488;2022-10-04T19:50:20;98929.88;;;27.18
63009;BMP280;49099;28.428;-16.488;2022-10-04T19:55:39;98936.41;;;27.23
63009;BMP280;49099;28.428;-16.488;2022-10-04T20:00:49;98942.25;;;26.95
63009;BMP280;49099;28.428;-16.488;2022-10-04T20:03:17;98952.22;;;26.87
63009;BMP280;49099;28.428;-16.488;2022-10-04T20:05:46;98949.22;;;26.72
63009;BMP280;49099;28.428;-16.488;2022-10-04T20:08:16;98948.38;;;26.64
63009;BMP280;49099;28.428;-16.488;2022-10-04T20:11:26;98948.50;;;26.53
63009;BMP280;49099;28.428;-16.488;2022-10-04T20:21:45;98960.31;;;26.50
63009;BMP280;49099;28.428;-16.488;2022-10-04T20:24:32;98968.97;;;26.43
63009;BMP280;49099;28.428;-16.488;2022-10-04T20:29:57;98976.91;;;26.17
63009;BMP280;49099;28.428;-16.488;2022-10-04T20:35:05;98993.75;;;26.18
63009;BMP280;49099;28.428;-16.488;2022-10-04T20:45:46;98995.84;;;26.30
63009;BMP280;49099;28.428;-16.488;2022-10-04T20:48:26;98997.72;;;26.35
63009;BMP280;49099;28.428;-16.488;2022-10-04T20:50:54;98996.91;;;26.40
63009;BMP280;49099;28.428;-16.488;2022-10-04T20:53:26;99005.59;;;26.33
63009;BMP280;49099;28.428;-16.488;2022-10-04T20:56:10;98999.19;;;26.36
63009;BMP280;49099;28.428;-16.488;2022-10-04T20:58:53;99002.09;;;26.38
63009;BMP280;49099;28.428;-16.488;2022-10-04T21:01:21;99005.44;;;26.44
63009;BMP280;49099;28.428;-16.488;2022-10-04T21:04:21;98998.53;;;26.49
63009;BMP280;49099;28.428;-16.488;2022-10-04T21:07:17;99000.53;;;26.48
63009;BMP280;49099;28.428;-16.488;2022-10-04T21:09:44;98999.03;;;26.47
63009;BMP280;49099;28.428;-16.488;2022-10-04T21:12:30;98988.50;;;26.49
63009;BMP280;49099;28.428;-16.488;2022-10-04T21:18:04;98994.09;;;26.51
63009;BMP280;49099;28.428;-16.488;2022-10-04T21:20:46;99009.38;;;26.43
63009;BMP280;49099;28.428;-16.488;2022-10-04T21:25:46;99000.63;;;26.37
63009;BMP280;49099;28.428;-16.488;2022-10-04T21:28:29;98998.91;;;26.40
63009;BMP280;49099;28.428;-16.488;2022-10-04T21:30:58;98996.72;;;26.38
63009;BMP280;49099;28.428;-16.488;2022-10-04T21:33:26;99004.06;;;26.38
63009;BMP280;49099;28.428;-16.488;2022-10-04T21:35:53;99004.16;;;26.32
63009;BMP280;49099;28.428;-16.488;2022-10-04T21:38:20;99007.41;;;26.25
63009;BMP280;49099;28.428;-16.488;2022-10-04T21:40:47;99003.22;;;26.24
63009;BMP280;49099;28.428;-16.488;2022-10-04T21:43:14;98998.38;;;26.23
63009;BMP280;49099;28.428;-16.488;2022-10-04T21:45:41;99008.22;;;26.20
63009;BMP280;49099;28.428;-16.488;2022-10-04T21:48:08;99010.16;;;26.20
63009;BMP280;49099;28.428;-16.488;2022-10-04T21:50:35;99002.06;;;26.20
63009;BMP280;49099;28.428;-16.488;2022-10-04T21:53:02;98996.47;;;26.18
63009;BMP280;49099;28.428;-16.488;2022-10-04T21:55:29;98993.47;;;26.21
63009;BMP280;49099;28.428;-16.488;2022-10-04T21:57:56;98990.75;;;26.27
63009;BMP280;49099;28.428;-16.488;2022-10-04T22:00:23;98994.38;;;26.29
63009;BMP280;49099;28.428;-16.488;2022-10-04T22:02:50;98985.06;;;26.30
63009;BMP280;49099;28.428;-16.488;2022-10-04T22:05:17;98983.03;;;26.36
63009;BMP280;49099;28.428;-16.488;2022-10-04T22:07:44;98975.16;;;26.38
63009;BMP280;49099;28.428;-16.488;2022-10-04T22:10:11;98975.91;;;26.39
63009;BMP280;49099;28.428;-16.488;2022-10-04T22:12:38;98973.28;;;26.33
63009;BMP280;49099;28.428;-16.488;2022-10-04T22:15:06;98971.34;;;26.28
63009;BMP280;49099;28.428;-16.488;2022-10-04T22:17:33;98982.13;;;26.28
63009;BMP280;49099;28.428;-16.488;2022-10-04T22:20:00;98968.19;;;26.30
63009;BMP280;49099;28.428;-16.488;2022-10-04T22:22:28;98971.81;;;26.32
63009;BMP280;49099;28.428;-16.488;2022-10-04T22:24:58;98962.50;;;26.33
63009;BMP280;49099;28.428;-16.488;2022-10-04T22:27:27;98963.66;;;26.38
63009;BMP280;49099;28.428;-16.488;2022-10-04T22:29:56;98964.81;;;26.42
63009;BMP280;49099;28.428;-16.488;2022-10-04T22:32:25;98963.00;;;26.50
63009;BMP280;49099;28.428;-16.488;2022-10-04T22:35:16;98959.00;;;26.57
63009;BMP280;49099;28.428;-16.488;2022-10-04T22:37:45;98956.75;;;26.61
63009;BMP280;49099;28.428;-16.488;2022-10-04T22:42:41;98949.53;;;26.69
63009;BMP280;49099;28.428;-16.488;2022-10-04T22:45:18;98949.22;;;26.72
63009;BMP280;49099;28.428;-16.488;2022-10-04T22:47:46;98948.94;;;26.76
63009;BMP280;49099;28.428;-16.488;2022-10-04T22:50:27;98952.53;;;26.78
63009;BMP280;49099;28.428;-16.488;2022-10-04T22:52:55;98951.53;;;26.81
63009;BMP280;49099;28.428;-16.488;2022-10-04T22:55:22;98947.31;;;26.86
63009;BMP280;49099;28.428;-16.488;2022-10-04T22:57:49;98952.41;;;26.89
63009;BMP280;49099;28.428;-16.488;2022-10-04T23:00:17;98947.47;;;26.93
63009;BMP280;49099;28.428;-16.488;2022-10-04T23:02:44;98947.16;;;26.97
63009;BMP280;49099;28.428;-16.488;2022-10-04T23:05:12;98937.81;;;26.98
63009;BMP280;49099;28.428;-16.488;2022-10-04T23:07:42;98937.81;;;26.98
63009;BMP280;49099;28.428;-16.488;2022-10-04T23:10:11;98934.59;;;26.99
63009;BMP280;49099;28.428;-16.488;2022-10-04T23:12:38;98942.88;;;27.01
63009;BMP280;49099;28.428;-16.488;2022-10-04T23:15:07;98936.69;;;27.06
63009;BMP280;49099;28.428;-16.488;2022-10-04T23:17:35;98939.78;;;27.10
63009;BMP280;49099;28.428;-16.488;2022-10-04T23:20:13;98921.19;;;27.12
63009;BMP280;49099;28.428;-16.488;2022-10-04T23:22:46;98923.34;;;27.14
63009;BMP280;49099;28.428;-16.488;2022-10-04T23:25:28;98921.84;;;27.13
63009;BMP280;49099;28.428;-16.488;2022-10-04T23:28:07;98925.09;;;27.11
63009;BMP280;49099;28.428;-16.488;2022-10-04T23:30:37;98924.88;;;27.09
63009;BMP280;49099;28.428;-16.488;2022-10-04T23:33:15;98934.41;;;27.10
63009;BMP280;49099;28.428;-16.488;2022-10-04T23:35:43;98933.97;;;27.06
63009;BMP280;49099;28.428;-16.488;2022-10-04T23:38:15;98932.09;;;27.01
63009;BMP280;49099;28.428;-16.488;2022-10-04T23:40:42;98932.69;;;26.94
63009;BMP280;49099;28.428;-16.488;2022-10-04T23:43:16;98928.88;;;26.90
63009;BMP280;49099;28.428;-16.488;2022-10-04T23:45:43;98927.41;;;26.89
63009;BMP280;49099;28.428;-16.488;2022-10-04T23:48:14;98925.16;;;26.93
63009;BMP280;49099;28.428;-16.488;2022-10-04T23:50:43;98938.34;;;26.96
63009;BMP280;49099;28.428;-16.488;2022-10-04T23:53:18;98928.03;;;26.95
63009;BMP280;49099;28.428;-16.488;2022-10-04T23:55:48;98936.94;;;26.90
63009;BMP280;49099;28.428;-16.488;2022-10-04T23:58:20;98930.50;;;26.80
